Time;durP1;ratioP1;P1;durP2;ratioP2;P2;SDS_P1;SDS_P2;PMS_P1;PMS_P2;Temp;Humidity;BMP_temperature;BMP_pressure;BME280_temperature;BME280_humidity;BME280_pressure;Samples;Min_cycle;Max_cycle;Signal;HPM_P1;HPM_P2
2024/01/13 00:02:20;;;;;;;30.20;15.30;;;;;;;-9.09;100.00;101114.20;105745;1256;63834;-75
2024/01/13 00:04:46;;;;;;;34.10;17.00;;;;;;;-9.21;100.00;101113.70;105641;1253;72719;-76
2024/01/13 00:07:13;;;;;;;37.40;18.90;;;;;;;-9.30;100.00;101114.79;105730;1258;62068;-76
2024/01/13 00:09:41;;;;;;;32.60;17.30;;;;;;;-9.28;100.00;101115.04;105773;1253;60423;-75
2024/01/13 00:12:08;;;;;;;33.60;18.20;;;;;;;-9.22;100.00;101112.67;105640;1253;73828;-74
2024/01/13 00:14:34;;;;;;;52.20;23.40;;;;;;;-9.12;100.00;101112.91;105569;1257;63735;-75
2024/01/13 00:17:01;;;;;;;73.40;35.50;;;;;;;-9.07;100.00;101115.63;105475;1253;72642;-74
2024/01/13 00:19:28;;;;;;;70.30;34.60;;;;;;;-9.03;100.00;101116.92;105618;1253;61872;-75
2024/01/13 00:21:55;;;;;;;59.20;33.00;;;;;;;-9.02;100.00;101115.24;105484;1253;60480;-74
2024/01/13 00:24:22;;;;;;;80.30;38.80;;;;;;;-9.07;100.00;101118.30;105580;1253;73844;-74
2024/01/13 00:26:49;;;;;;;66.90;33.90;;;;;;;-9.08;100.00;101117.79;105584;1258;63844;-74
2024/01/13 00:29:17;;;;;;;24.50;13.90;;;;;;;-9.08;100.00;101123.20;105428;1253;72635;-76
2024/01/13 00:31:44;;;;;;;31.10;13.30;;;;;;;-9.12;100.00;101126.48;105604;1253;61836;-74
2024/01/13 00:34:11;;;;;;;53.40;24.50;;;;;;;-9.20;100.00;101129.31;105646;1253;60407;-75
2024/01/13 00:36:38;;;;;;;49.30;21.70;;;;;;;-9.29;100.00;101130.39;105822;1258;73714;-74
2024/01/13 00:39:07;;;;;;;59.60;23.90;;;;;;;-9.38;100.00;101132.17;105864;1253;63910;-75
2024/01/13 00:41:34;;;;;;;41.10;19.60;;;;;;;-9.45;100.00;101125.38;105672;1253;72680;-74
2024/01/13 00:44:02;;;;;;;44.80;19.40;;;;;;;-9.50;100.00;101124.36;105789;1257;61812;-76
2024/01/13 00:46:29;;;;;;;33.50;18.10;;;;;;;-9.58;100.00;101125.66;105528;1253;60516;-75
2024/01/13 00:48:57;;;;;;;57.90;23.80;;;;;;;-9.66;100.00;101121.52;105590;1254;73899;-75
2024/01/13 00:51:24;;;;;;;32.50;16.00;;;;;;;-9.75;100.00;101112.98;105694;1253;63952;-74
2024/01/13 00:53:51;;;;;;;30.60;13.70;;;;;;;-9.82;100.00;101112.58;105724;1253;72616;-75
2024/01/13 00:56:18;;;;;;;20.80;10.60;;;;;;;-9.92;100.00;101113.45;105618;1256;60863;-75
2024/01/13 00:58:45;;;;;;;23.80;12.50;;;;;;;-10.03;100.00;101113.60;105753;1253;60451;-73
2024/01/13 01:01:13;;;;;;;23.30;10.20;;;;;;;-10.15;100.00;101109.68;105747;1254;73856;-73
2024/01/13 01:03:43;;;;;;;26.50;11.10;;;;;;;-10.25;100.00;101107.36;105735;1253;63940;-74
2024/01/13 01:06:10;;;;;;;27.40;11.80;;;;;;;-10.30;100.00;101107.20;105653;1253;73162;-75
2024/01/13 01:08:39;;;;;;;26.40;13.60;;;;;;;-10.34;100.00;101110.45;105742;1258;61914;-73
2024/01/13 01:11:08;;;;;;;29.80;13.50;;;;;;;-10.41;100.00;101110.90;105666;1253;60491;-74
2024/01/13 01:13:36;;;;;;;28.80;11.80;;;;;;;-10.48;100.00;101109.32;105625;1253;73698;-76
2024/01/13 01:16:03;;;;;;;34.30;14.00;;;;;;;-10.55;100.00;101111.64;105596;1257;63902;-76
2024/01/13 01:18:31;;;;;;;53.70;18.60;;;;;;;-10.62;100.00;101110.38;105408;1253;72542;-74
2024/01/13 01:21:01;;;;;;;40.40;17.70;;;;;;;-10.69;100.00;101109.30;105683;1258;61973;-75
2024/01/13 01:23:28;;;;;;;28.00;13.50;;;;;;;-10.75;100.00;101105.21;105568;1253;60502;-75
2024/01/13 01:25:55;;;;;;;27.90;12.90;;;;;;;-10.77;100.00;101105.98;105438;1253;73766;-75
2024/01/13 01:28:22;;;;;;;21.00;10.50;;;;;;;-10.79;100.00;101095.60;105470;1253;63847;-73
2024/01/13 01:31:00;;;;;;;15.20;9.80;;;;;;;-10.80;100.00;101088.83;105642;1257;72665;-74
2024/01/13 01:33:27;;;;;;;19.10;9.90;;;;;;;-10.80;100.00;101086.79;105521;1260;61032;-75
2024/01/13 01:35:54;;;;;;;16.50;8.90;;;;;;;-10.79;100.00;101083.79;105572;1253;60552;-74
2024/01/13 01:38:21;;;;;;;25.30;10.40;;;;;;;-10.79;100.00;101086.66;105606;1253;73874;-75
2024/01/13 01:41:05;;;;;;;18.90;9.50;;;;;;;-10.76;100.00;101081.21;105610;1256;61405;-74
2024/01/13 01:43:33;;;;;;;23.90;10.40;;;;;;;-10.74;100.00;101077.88;105672;1253;72762;-75
2024/01/13 01:46:00;;;;;;;33.80;13.40;;;;;;;-10.77;100.00;101077.62;105637;1258;61942;-75
2024/01/13 01:48:33;;;;;;;40.90;14.70;;;;;;;-10.84;100.00;101075.85;105653;1253;60451;-74
2024/01/13 01:51:09;;;;;;;34.20;15.10;;;;;;;-10.91;100.00;101071.58;105672;1256;73871;-74
2024/01/13 01:53:36;;;;;;;32.20;13.80;;;;;;;-10.92;100.00;101068.31;105720;1253;63794;-75
2024/01/13 01:56:10;;;;;;;38.90;16.40;;;;;;;-10.89;100.00;101070.95;105740;1258;72570;-73
2024/01/13 01:58:36;;;;;;;29.10;11.30;;;;;;;-10.84;100.00;101064.05;106204;1258;61981;-73
2024/01/13 02:01:03;;;;;;;37.30;11.80;;;;;;;-10.80;100.00;101066.52;106732;1253;60545;-73
2024/01/13 02:03:33;;;;;;;23.50;11.10;;;;;;;-10.80;100.00;101063.82;107117;1253;72521;-73
2024/01/13 02:06:02;;;;;;;26.60;11.70;;;;;;;-10.80;100.00;101065.17;109448;1253;61399;-73
2024/01/13 02:08:29;;;;;;;25.80;13.70;;;;;;;-10.79;100.00;101065.55;108316;1259;71262;-72
2024/01/13 02:11:13;;;;;;;34.60;13.90;;;;;;;-10.80;100.00;101066.38;107072;1257;60815;-73
2024/01/13 02:13:43;;;;;;;58.30;25.50;;;;;;;-10.81;100.00;101066.66;106153;1259;60474;-73
2024/01/13 02:16:10;;;;;;;41.00;17.50;;;;;;;-10.82;100.00;101067.48;105855;1253;73978;-73
2024/01/13 02:18:38;;;;;;;38.10;18.50;;;;;;;-10.81;100.00;101066.48;105754;1256;62282;-74
2024/01/13 02:21:09;;;;;;;21.30;11.10;;;;;;;-10.78;100.00;101063.04;105794;1253;73097;-74
2024/01/13 02:23:37;;;;;;;36.10;11.10;;;;;;;-10.75;100.00;101062.66;105749;1259;61446;-74
2024/01/13 02:26:04;;;;;;;16.90;8.70;;;;;;;-10.73;100.00;101067.44;105663;1257;60378;-76
2024/01/13 02:28:32;;;;;;;15.30;8.20;;;;;;;-10.75;100.00;101069.56;105714;1254;73845;-73
2024/01/13 02:31:14;;;;;;;14.20;7.90;;;;;;;-10.79;100.00;101068.58;105510;1258;63811;-74
2024/01/13 02:33:41;;;;;;;16.90;7.50;;;;;;;-10.82;100.00;101063.06;105670;1253;72707;-75
2024/01/13 02:36:09;;;;;;;20.60;9.10;;;;;;;-10.84;100.00;101062.02;105712;1257;62020;-75
2024/01/13 02:38:35;;;;;;;20.00;11.80;;;;;;;-10.84;100.00;101062.35;105658;1253;60506;-75
2024/01/13 02:41:05;;;;;;;21.70;10.90;;;;;;;-10.89;100.00;101060.98;105756;1256;73745;-73
2024/01/13 02:43:32;;;;;;;18.40;9.00;;;;;;;-10.95;100.00;101062.48;105759;1257;63900;-75
2024/01/13 02:46:00;;;;;;;16.70;8.30;;;;;;;-11.03;100.00;101054.97;105560;1253;72730;-72
2024/01/13 02:48:27;;;;;;;19.10;9.50;;;;;;;-11.10;100.00;101054.04;105691;1259;61977;-73
2024/01/13 02:51:06;;;;;;;16.90;8.90;;;;;;;-11.12;100.00;101051.95;105670;1253;60491;-73
2024/01/13 02:53:33;;;;;;;17.60;7.70;;;;;;;-11.09;100.00;101051.55;105723;1253;73560;-74
2024/01/13 02:56:00;;;;;;;15.90;7.50;;;;;;;-11.08;100.00;101054.09;105745;1253;62864;-75
2024/01/13 02:58:27;;;;;;;13.50;7.10;;;;;;;-11.08;100.00;101050.57;105685;1254;72417;-73
2024/01/13 03:01:09;;;;;;;12.90;6.60;;;;;;;-11.06;100.00;101049.61;105783;1258;61714;-74
2024/01/13 03:03:36;;;;;;;17.40;8.70;;;;;;;-11.04;100.00;101052.87;105850;1257;60487;-74
2024/01/13 03:06:04;;;;;;;17.60;9.10;;;;;;;-11.02;100.00;101046.70;105878;1254;73685;-74
2024/01/13 03:08:32;;;;;;;21.80;11.20;;;;;;;-10.99;100.00;101044.77;105751;1253;64412;-73
2024/01/13 03:11:11;;;;;;;12.20;7.70;;;;;;;-11.00;100.00;101037.15;105777;1257;71245;-74
2024/01/13 03:13:37;;;;;;;13.90;7.40;;;;;;;-11.03;100.00;101036.36;105925;1254;61354;-74
2024/01/13 03:16:05;;;;;;;15.60;7.40;;;;;;;-11.04;100.00;101039.38;105864;1258;60460;-72
2024/01/13 03:18:32;;;;;;;19.10;8.30;;;;;;;-11.04;100.00;101039.90;105788;1258;73727;-74
2024/01/13 03:21:10;;;;;;;13.20;7.20;;;;;;;-10.99;100.00;101033.81;105811;1257;63858;-74
2024/01/13 03:23:38;;;;;;;12.70;8.70;;;;;;;-10.96;100.00;101033.08;105811;1253;70680;-75
2024/01/13 03:26:05;;;;;;;17.70;8.00;;;;;;;-10.95;100.00;101036.29;105740;1253;61688;-75
2024/01/13 03:28:32;;;;;;;23.90;9.70;;;;;;;-10.98;100.00;101035.03;105817;1253;60322;-74
2024/01/13 03:31:09;;;;;;;17.50;9.00;;;;;;;-11.00;100.00;101033.27;105774;1253;72689;-74
2024/01/13 03:33:36;;;;;;;16.10;8.30;;;;;;;-10.97;100.00;101027.80;105601;1253;207822;-73
2024/01/13 03:37:05;;;;;;;18.80;8.90;;;;;;;-10.90;100.00;101029.21;102832;1294;601069;-73
2024/01/13 03:39:34;;;;;;;15.40;9.20;;;;;;;-10.96;100.00;101022.09;105663;1267;59352;-73
2024/01/13 03:42:02;;;;;;;20.60;10.10;;;;;;;-11.04;100.00;101022.85;105621;1266;59297;-73
2024/01/13 03:44:30;;;;;;;21.00;12.60;;;;;;;-11.12;100.00;101023.07;105674;1263;72072;-73
2024/01/13 03:46:58;;;;;;;20.70;11.40;;;;;;;-11.22;100.00;101024.06;105177;1263;62572;-74
2024/01/13 03:49:25;;;;;;;27.60;13.90;;;;;;;-11.35;100.00;101031.05;106194;1257;71486;-74
2024/01/13 03:51:53;;;;;;;30.50;14.20;;;;;;;-11.45;100.00;101028.50;106465;1258;159859;-73
2024/01/13 03:54:21;;;;;;;31.30;14.80;;;;;;;-11.50;100.00;101021.73;105962;1257;60121;-74
2024/01/13 03:56:51;;;;;;;18.00;10.00;;;;;;;-11.52;100.00;101019.99;105739;1253;70812;-74
2024/01/13 03:59:19;;;;;;;24.20;12.00;;;;;;;-11.54;100.00;101017.89;105671;1253;63103;-74
2024/01/13 04:01:46;;;;;;;17.60;9.70;;;;;;;-11.57;100.00;101011.73;105708;1259;71699;-74
2024/01/13 04:04:14;;;;;;;14.40;9.20;;;;;;;-11.60;100.00;101008.59;105854;1255;62742;-74
2024/01/13 04:06:42;;;;;;;16.30;8.60;;;;;;;-11.61;100.00;101013.77;105820;1258;59560;-75
2024/01/13 04:09:11;;;;;;;12.80;6.80;;;;;;;-11.65;100.00;101009.41;105893;1254;72353;-74
2024/01/13 04:11:38;;;;;;;21.10;10.40;;;;;;;-11.62;100.00;101012.04;105660;1258;63678;-74
2024/01/13 04:14:06;;;;;;;13.10;8.50;;;;;;;-11.61;100.00;101014.08;105812;1256;74028;-74
2024/01/13 04:16:34;;;;;;;17.50;8.80;;;;;;;-11.62;100.00;101012.02;105745;1255;62686;-74
2024/01/13 04:19:02;;;;;;;25.40;12.80;;;;;;;-11.62;100.00;101007.67;105596;1259;59646;-75
2024/01/13 04:21:30;;;;;;;26.00;12.90;;;;;;;-11.61;100.00;101008.36;105690;1251;71860;-75
2024/01/13 04:23:58;;;;;;;20.10;9.50;;;;;;;-11.60;100.00;101013.27;105654;1258;63568;-74
2024/01/13 04:26:28;;;;;;;18.30;8.50;;;;;;;-11.62;100.00;101015.76;105802;1256;72787;-74
2024/01/13 04:28:56;;;;;;;19.60;10.40;;;;;;;-11.63;100.00;101014.21;105714;1256;61678;-74
2024/01/13 04:31:24;;;;;;;24.30;11.10;;;;;;;-11.60;100.00;101016.67;105775;1256;59741;-73
2024/01/13 04:33:51;;;;;;;21.90;13.20;;;;;;;-11.56;100.00;101017.30;105905;1252;73306;-74
2024/01/13 04:36:20;;;;;;;22.40;9.90;;;;;;;-11.53;100.00;101012.35;105835;1256;62445;-73
2024/01/13 04:38:49;;;;;;;17.10;9.70;;;;;;;-11.50;100.00;101013.15;105794;1257;72694;-73
2024/01/13 04:41:17;;;;;;;20.90;9.70;;;;;;;-11.47;100.00;101019.16;106003;1254;60517;-73
2024/01/13 04:43:45;;;;;;;18.10;11.10;;;;;;;-11.43;100.00;101023.19;105824;1259;59585;-75
2024/01/13 04:46:13;;;;;;;33.10;15.00;;;;;;;-11.40;100.00;101022.93;105668;1251;71830;-72
2024/01/13 04:48:40;;;;;;;22.40;11.20;;;;;;;-11.38;100.00;101026.54;105786;1256;62125;-74
2024/01/13 04:51:08;;;;;;;24.30;11.20;;;;;;;-11.39;100.00;101030.23;105732;1259;71740;-74
2024/01/13 04:53:37;;;;;;;21.10;10.10;;;;;;;-11.44;100.00;101023.98;105672;1263;60463;-75
2024/01/13 04:56:05;;;;;;;15.00;8.50;;;;;;;-11.51;100.00;101026.42;105826;1256;60317;-75
2024/01/13 04:58:32;;;;;;;16.90;9.50;;;;;;;-11.59;100.00;101028.52;105712;1259;71915;-74
2024/01/13 05:01:00;;;;;;;19.90;8.40;;;;;;;-11.64;100.00;101026.81;105888;1255;62609;-74
2024/01/13 05:03:27;;;;;;;13.80;7.10;;;;;;;-11.70;100.00;101024.59;105590;1258;72680;-75
2024/01/13 05:05:55;;;;;;;22.80;8.90;;;;;;;-11.79;100.00;101026.76;105865;1255;61673;-75
2024/01/13 05:08:23;;;;;;;26.50;10.40;;;;;;;-11.87;100.00;101023.95;105754;1252;60217;-75
2024/01/13 05:10:51;;;;;;;25.30;10.90;;;;;;;-11.91;100.00;101025.70;105748;1258;70528;-75
2024/01/13 05:13:18;;;;;;;20.40;10.20;;;;;;;-11.91;100.00;101026.70;105677;1258;63213;-75
2024/01/13 05:15:46;;;;;;;24.60;10.80;;;;;;;-11.94;100.00;101026.09;105795;1259;74273;-74
2024/01/13 05:18:13;;;;;;;24.40;11.50;;;;;;;-11.96;100.00;101028.02;105741;1256;60446;-75
2024/01/13 05:20:42;;;;;;;14.10;8.40;;;;;;;-11.95;100.00;101031.09;105733;1256;61247;-75
2024/01/13 05:23:09;;;;;;;11.00;7.40;;;;;;;-11.95;100.00;101033.12;105844;1257;71005;-77
2024/01/13 05:25:37;;;;;;;11.30;7.40;;;;;;;-11.97;100.00;101031.38;105787;1252;61828;-76
2024/01/13 05:28:05;;;;;;;16.60;7.60;;;;;;;-11.98;100.00;101038.57;105791;1258;71609;-75
2024/01/13 05:30:32;;;;;;;10.00;6.50;;;;;;;-11.97;100.00;101040.11;105550;1260;62299;-75
2024/01/13 05:33:01;;;;;;;12.20;7.60;;;;;;;-11.99;100.00;101044.94;105758;1256;59599;-76
2024/01/13 05:35:29;;;;;;;12.10;6.70;;;;;;;-12.00;100.00;101045.41;105837;1253;71851;-76
2024/01/13 05:37:57;;;;;;;15.00;7.80;;;;;;;-11.99;100.00;101049.83;105869;1256;63590;-76
2024/01/13 05:40:25;;;;;;;11.30;6.50;;;;;;;-11.99;100.00;101052.52;105848;1257;71338;-75
2024/01/13 05:42:54;;;;;;;6.10;4.90;;;;;;;-12.00;100.00;101050.95;105720;1256;61621;-75
2024/01/13 05:45:22;;;;;;;12.80;5.80;;;;;;;-11.99;100.00;101053.00;105771;1251;60066;-75
2024/01/13 05:47:49;;;;;;;13.10;8.10;;;;;;;-12.00;100.00;101055.52;105878;1251;72866;-75
2024/01/13 05:50:17;;;;;;;12.80;7.80;;;;;;;-11.98;100.00;101058.95;106605;1253;61591;-74
2024/01/13 05:52:45;;;;;;;16.30;8.40;;;;;;;-11.98;100.00;101058.46;107475;1251;72604;-74
2024/01/13 05:55:13;;;;;;;20.40;8.80;;;;;;;-11.97;100.00;101062.86;107782;1253;60550;-74
2024/01/13 05:57:41;;;;;;;14.70;7.70;;;;;;;-11.98;100.00;101070.73;108664;1251;59205;-75
2024/01/13 06:00:09;;;;;;;15.70;7.40;;;;;;;-12.00;100.00;101069.52;106680;1259;73326;-76
2024/01/13 06:02:36;;;;;;;13.30;7.60;;;;;;;-12.00;100.00;101073.88;105788;1256;63945;-76
2024/01/13 06:05:06;;;;;;;15.00;7.90;;;;;;;-12.04;100.00;101075.26;105777;1266;72674;-75
2024/01/13 06:07:34;;;;;;;16.60;7.90;;;;;;;-12.05;100.00;101076.71;105862;1255;60454;-76
2024/01/13 06:10:10;;;;;;;18.60;8.10;;;;;;;-12.06;100.00;101077.52;105938;1257;59765;-75
2024/01/13 06:12:38;;;;;;;21.50;8.00;;;;;;;-12.10;100.00;101078.91;105831;1256;73063;-75
2024/01/13 06:15:07;;;;;;;11.70;9.20;;;;;;;-12.11;100.00;101079.70;105816;1257;63550;-75
2024/01/13 06:17:36;;;;;;;24.90;10.30;;;;;;;-12.09;100.00;101081.13;105693;1254;72876;-75
2024/01/13 06:20:04;;;;;;;17.20;8.70;;;;;;;-12.06;100.00;101079.36;105823;1257;60404;-74
2024/01/13 06:22:32;;;;;;;18.90;9.70;;;;;;;-12.02;100.00;101080.71;105939;1256;60019;-75
2024/01/13 06:25:00;;;;;;;17.50;10.30;;;;;;;-11.96;100.00;101083.81;106551;1256;71699;-76
2024/01/13 06:27:28;;;;;;;17.50;8.50;;;;;;;-11.86;100.00;101082.99;108860;1255;63817;-75
2024/01/13 06:29:56;;;;;;;17.80;8.90;;;;;;;-11.73;100.00;101081.10;106987;1256;71607;-75
2024/01/13 06:32:23;;;;;;;18.10;9.50;;;;;;;-11.62;100.00;101079.99;106502;1257;61777;-74
2024/01/13 06:34:51;;;;;;;17.30;9.00;;;;;;;-11.52;100.00;101078.86;105758;1254;60133;-75
2024/01/13 06:37:19;;;;;;;17.70;8.20;;;;;;;-11.41;100.00;101080.61;106041;1257;71782;-74
2024/01/13 06:39:47;;;;;;;14.30;9.10;;;;;;;-11.29;100.00;101074.27;106634;1258;63570;-73
2024/01/13 06:42:15;;;;;;;15.60;8.90;;;;;;;-11.20;100.00;101069.55;106634;1256;72018;-74
2024/01/13 06:44:43;;;;;;;13.80;8.20;;;;;;;-11.12;100.00;101071.84;106670;1257;62622;-74
2024/01/13 06:47:11;;;;;;;17.80;8.70;;;;;;;-11.05;100.00;101065.01;106618;1251;59639;-74
2024/01/13 06:49:39;;;;;;;18.30;8.90;;;;;;;-10.97;100.00;101063.94;106547;1251;74070;-74
2024/01/13 06:52:09;;;;;;;14.10;8.50;;;;;;;-10.91;100.00;101062.12;106600;1256;61697;-73
2024/01/13 06:54:37;;;;;;;17.40;10.70;;;;;;;-10.83;100.00;101066.41;106564;1251;73151;-74
2024/01/13 06:57:05;;;;;;;18.80;9.10;;;;;;;-10.73;100.00;101066.28;106643;1256;61965;-72
2024/01/13 06:59:34;;;;;;;14.50;9.50;;;;;;;-10.59;100.00;101065.38;106900;1256;60159;-73
2024/01/13 07:02:04;;;;;;;19.80;9.90;;;;;;;-10.42;100.00;101056.28;106827;1251;73004;-74
2024/01/13 07:04:36;;;;;;;20.80;10.70;;;;;;;-10.17;100.00;101059.06;106893;1256;63484;-74
2024/01/13 07:07:05;;;;;;;19.20;9.50;;;;;;;-9.97;100.00;101056.63;106620;1260;73135;-74
2024/01/13 07:09:32;;;;;;;30.40;12.70;;;;;;;-9.83;100.00;101054.02;106658;1257;63929;-73
2024/01/13 07:12:00;;;;;;;22.50;11.70;;;;;;;-9.73;100.00;101052.29;106749;1256;60243;-74
2024/01/13 07:15:04;;;;;;;19.80;10.40;;;;;;;-9.64;100.00;101044.27;103276;1293;615454;-75
2024/01/13 07:17:32;;;;;;;24.90;15.70;;;;;;;-9.61;100.00;101049.09;105305;1270;60228;-74
2024/01/13 07:20:01;;;;;;;19.00;11.30;;;;;;;-9.59;100.00;101048.64;105257;1264;59259;-74
2024/01/13 07:22:29;;;;;;;25.50;9.70;;;;;;;-9.59;100.00;101050.52;105310;1264;72446;-75
2024/01/13 07:24:57;;;;;;;30.30;13.10;;;;;;;-9.63;100.00;101046.66;105367;1261;62647;-74
2024/01/13 07:27:24;;;;;;;23.90;12.30;;;;;;;-9.65;100.00;101046.60;105557;1253;276938;-74
2024/01/13 07:29:51;;;;;;;17.20;10.70;;;;;;;-9.64;100.00;101053.39;105969;1257;61410;-75
2024/01/13 07:32:27;;;;;;;24.10;9.90;;;;;;;-9.64;100.00;101054.93;105827;1257;60880;-75
2024/01/13 07:34:54;;;;;;;19.50;8.70;;;;;;;-9.63;100.00;101051.56;105783;1254;72737;-74
2024/01/13 07:37:21;;;;;;;18.20;10.70;;;;;;;-9.59;100.00;101051.17;105970;1256;63860;-74
2024/01/13 07:39:48;;;;;;;17.10;8.00;;;;;;;-9.54;100.00;101050.81;105785;1253;72804;-75
2024/01/13 07:42:15;;;;;;;13.80;8.30;;;;;;;-9.43;100.00;101047.56;105857;1256;62006;-75
2024/01/13 07:44:43;;;;;;;15.90;8.80;;;;;;;-9.30;100.00;101057.91;105807;1254;60238;-75
2024/01/13 07:47:10;;;;;;;22.20;8.40;;;;;;;-9.18;100.00;101057.74;105899;1257;72624;-74
2024/01/13 07:49:37;;;;;;;14.70;8.10;;;;;;;-9.04;100.00;101059.80;106036;1253;62630;-75
2024/01/13 07:52:06;;;;;;;17.30;8.90;;;;;;;-8.95;100.00;101055.96;106054;1251;72708;-73
2024/01/13 07:54:33;;;;;;;23.80;10.60;;;;;;;-8.88;100.00;101059.89;107288;1251;61926;-75
2024/01/13 07:57:02;;;;;;;13.50;9.10;;;;;;;-8.76;100.00;101063.91;106318;1251;59749;-77
2024/01/13 07:59:34;;;;;;;13.80;7.20;;;;;;;-8.67;100.00;101068.07;107307;1253;73033;-74
2024/01/13 08:02:01;;;;;;;17.80;8.60;;;;;;;-8.59;100.00;101065.71;106879;1251;63283;-75
2024/01/13 08:04:29;;;;;;;19.40;10.40;;;;;;;-8.46;100.00;101072.63;106134;1251;72704;-76
2024/01/13 08:07:00;;;;;;;22.90;12.40;;;;;;;-8.35;100.00;101076.95;106031;1263;62587;-75
2024/01/13 08:09:30;;;;;;;17.00;8.40;;;;;;;-8.30;100.00;101079.45;106719;1251;62050;-74
2024/01/13 08:11:57;;;;;;;16.60;9.00;;;;;;;-8.22;100.00;101085.23;106361;1254;71556;-75
2024/01/13 08:14:26;;;;;;;22.70;9.70;;;;;;;-8.15;100.00;101089.48;106401;1254;63845;-77
2024/01/13 08:16:53;;;;;;;20.10;8.60;;;;;;;-8.11;100.00;101085.48;106088;1251;73016;-74
2024/01/13 08:19:21;;;;;;;19.10;10.00;;;;;;;-8.15;100.00;101088.46;105960;1253;59679;-75
2024/01/13 08:21:50;;;;;;;27.70;12.50;;;;;;;-8.16;100.00;101089.95;106125;1254;59987;-75
2024/01/13 08:24:17;;;;;;;23.40;12.20;;;;;;;-8.13;100.00;101089.02;106183;1252;72928;-76
2024/01/13 08:26:44;;;;;;;17.60;10.60;;;;;;;-8.04;100.00;101088.88;106009;1253;63136;-75
2024/01/13 08:29:11;;;;;;;23.20;11.30;;;;;;;-7.92;100.00;101087.12;106101;1250;72760;-75
2024/01/13 08:31:38;;;;;;;18.10;10.20;;;;;;;-7.79;100.00;101084.53;105958;1253;61937;-76
2024/01/13 08:34:09;;;;;;;16.90;9.60;;;;;;;-7.69;100.00;101086.27;105979;1253;60629;-74
2024/01/13 08:36:38;;;;;;;20.70;11.00;;;;;;;-7.62;100.00;101078.77;106181;1256;74806;-75
2024/01/13 08:39:05;;;;;;;29.40;13.50;;;;;;;-7.50;100.00;101069.52;106093;1254;63931;-75
2024/01/13 08:41:43;;;;;;;16.40;9.40;;;;;;;-7.38;100.00;101069.62;105982;1257;72549;-75
2024/01/13 08:44:11;;;;;;;17.40;9.30;;;;;;;-7.31;99.68;101067.20;105981;1254;61183;-74
2024/01/13 08:46:38;;;;;;;20.10;9.40;;;;;;;-7.34;98.96;101059.14;106077;1253;60183;-74
2024/01/13 08:49:08;;;;;;;30.40;15.70;;;;;;;-7.39;97.99;101056.52;106179;1254;73059;-74
2024/01/13 08:51:38;;;;;;;14.60;8.90;;;;;;;-7.41;98.60;101049.67;106051;1251;62692;-76
2024/01/13 08:54:06;;;;;;;17.60;9.60;;;;;;;-7.37;99.88;101044.15;106079;1253;72698;-75
2024/01/13 08:56:36;;;;;;;22.60;9.90;;;;;;;-7.29;98.11;101048.55;105919;1259;62635;-75
2024/01/13 08:59:10;;;;;;;15.90;8.10;;;;;;;-7.25;97.68;101046.42;106162;1250;60250;-75
2024/01/13 09:01:38;;;;;;;15.20;8.80;;;;;;;-7.18;96.74;101041.64;106054;1250;72283;-75
2024/01/13 09:04:08;;;;;;;17.70;9.30;;;;;;;-7.08;97.69;101040.30;106006;1256;63931;-75
2024/01/13 09:06:35;;;;;;;16.30;9.40;;;;;;;-6.96;95.34;101034.40;106131;1253;72611;-75
2024/01/13 09:09:04;;;;;;;13.20;7.10;;;;;;;-6.91;93.14;101037.02;106036;1253;61165;-75
2024/01/13 09:11:31;;;;;;;18.50;10.10;;;;;;;-6.91;91.47;101037.72;105832;1251;61597;-76
2024/01/13 09:14:10;;;;;;;15.80;9.80;;;;;;;-6.84;92.98;101034.95;106029;1253;73026;-75
2024/01/13 09:16:38;;;;;;;13.30;9.30;;;;;;;-6.74;92.64;101031.05;106089;1250;64660;-75
2024/01/13 09:19:08;;;;;;;11.30;7.40;;;;;;;-6.67;91.08;101027.59;106026;1254;72647;-75
2024/01/13 09:21:35;;;;;;;16.60;9.50;;;;;;;-6.62;89.26;101031.59;105969;1253;61255;-75
2024/01/13 09:24:10;;;;;;;14.60;9.30;;;;;;;-6.60;87.96;101030.92;106076;1251;59576;-75
2024/01/13 09:26:42;;;;;;;19.90;8.50;;;;;;;-6.59;87.41;101030.27;105876;1249;72841;-75
2024/01/13 09:29:13;;;;;;;13.80;8.50;;;;;;;-6.64;86.45;101031.04;106095;1250;63515;-74
2024/01/13 09:31:41;;;;;;;12.50;6.80;;;;;;;-6.71;85.89;101034.16;106103;1250;72658;-76
2024/01/13 09:34:10;;;;;;;13.10;7.50;;;;;;;-6.83;85.78;101030.03;106139;1253;59890;-76
2024/01/13 09:36:41;;;;;;;14.40;8.20;;;;;;;-6.95;87.37;101031.17;105842;1251;59632;-76
2024/01/13 09:39:11;;;;;;;21.20;10.30;;;;;;;-6.97;90.92;101033.20;105912;1250;73340;-75
2024/01/13 09:41:38;;;;;;;13.40;7.00;;;;;;;-6.87;92.21;101034.89;105896;1256;63861;-75
2024/01/13 09:44:11;;;;;;;18.50;7.40;;;;;;;-6.83;90.59;101032.23;106164;1253;72659;-75
2024/01/13 09:46:38;;;;;;;12.00;7.00;;;;;;;-6.86;91.72;101027.27;107643;1253;60183;-76
2024/01/13 09:49:09;;;;;;;11.50;7.10;;;;;;;-6.80;92.53;101026.68;107970;1251;60331;-75
2024/01/13 09:51:37;;;;;;;16.20;9.60;;;;;;;-6.74;90.40;101032.91;109241;1249;72574;-74
2024/01/13 09:54:17;;;;;;;13.10;6.80;;;;;;;-6.72;90.97;101032.44;109843;1249;62946;-74
2024/01/13 09:56:52;;;;;;;10.40;6.90;;;;;;;-6.71;90.37;101023.45;106681;1251;72581;-74
2024/01/13 09:59:22;;;;;;;14.80;7.80;;;;;;;-6.71;92.62;101026.67;105800;1257;60987;-74
2024/01/13 10:01:49;;;;;;;11.50;6.70;;;;;;;-6.66;91.97;101028.80;106038;1253;59889;-75
2024/01/13 10:04:16;;;;;;;11.80;7.50;;;;;;;-6.68;90.56;101029.12;106104;1253;73327;-75
2024/01/13 10:06:43;;;;;;;18.10;7.70;;;;;;;-6.70;92.80;101025.01;106050;1253;63978;-75
2024/01/13 10:09:11;;;;;;;10.20;6.70;;;;;;;-6.71;92.22;101024.11;105851;1257;72861;-75
2024/01/13 10:11:58;;;;;;;21.30;9.50;;;;;;;-6.78;92.59;101019.77;106080;1251;61308;-76
2024/01/13 10:14:25;;;;;;;13.50;7.70;;;;;;;-6.82;94.10;101017.65;105963;1251;60644;-76
2024/01/13 10:16:53;;;;;;;19.90;9.80;;;;;;;-6.81;94.08;101014.44;106103;1250;73460;-75
2024/01/13 10:19:23;;;;;;;14.80;7.80;;;;;;;-6.78;95.49;101015.86;106066;1250;63938;-76
2024/01/13 10:21:54;;;;;;;16.70;8.60;;;;;;;-6.75;95.25;101015.39;105949;1257;71563;-76
2024/01/13 10:24:21;;;;;;;15.80;9.30;;;;;;;-6.73;96.05;101011.67;105981;1250;60820;-76
2024/01/13 10:26:48;;;;;;;16.80;7.80;;;;;;;-6.71;96.04;101011.55;106131;1253;60324;-76
2024/01/13 10:29:16;;;;;;;15.20;8.70;;;;;;;-6.68;95.93;101007.02;106002;1256;73083;-74
2024/01/13 10:31:43;;;;;;;12.60;7.30;;;;;;;-6.66;95.84;101003.81;106023;1252;64978;-75
2024/01/13 10:34:13;;;;;;;9.10;6.50;;;;;;;-6.68;94.48;100999.17;106086;1251;72531;-75
2024/01/13 10:36:41;;;;;;;9.00;6.00;;;;;;;-6.71;95.87;100998.63;105982;1250;59813;-75
2024/01/13 10:39:12;;;;;;;14.90;8.40;;;;;;;-6.71;95.92;100993.19;106045;1251;60500;-75
2024/01/13 10:41:47;;;;;;;16.30;7.40;;;;;;;-6.70;97.99;100991.85;106028;1253;72966;-77
2024/01/13 10:44:16;;;;;;;22.10;10.30;;;;;;;-6.71;98.21;100992.52;106382;1250;64265;-77
2024/01/13 10:46:49;;;;;;;14.80;8.60;;;;;;;-6.70;99.91;100989.63;106709;1251;70802;-75
2024/01/13 10:49:30;;;;;;;23.60;11.70;;;;;;;-6.62;100.00;100984.49;106028;1251;60181;-75
2024/01/13 10:51:58;;;;;;;27.80;9.40;;;;;;;-6.51;100.00;100982.46;105950;1251;59813;-76
2024/01/13 10:54:29;;;;;;;23.80;11.50;;;;;;;-6.44;100.00;100980.01;106021;1257;73091;-75
2024/01/13 10:56:57;;;;;;;23.30;10.20;;;;;;;-6.41;100.00;100977.66;106094;1251;62574;-76
2024/01/13 10:59:27;;;;;;;24.00;11.10;;;;;;;-6.43;100.00;100977.64;106076;1251;72307;-74
2024/01/13 11:01:56;;;;;;;16.00;8.30;;;;;;;-6.42;100.00;100977.16;106025;1255;61678;-75
2024/01/13 11:04:23;;;;;;;19.30;8.60;;;;;;;-6.37;100.00;100975.34;105883;1251;60369;-75